| time (UTC) | temp F | wind direction | speed MPH | gust MPH | rain 1hr in | rain 24hr in | rain mn in | humidity % | barometer mb |
| 20260509123052 | 47 | 128 | 4.0 | 10.0 | 0.00 | 0.18 | 0.00 | 90 | 1009.3 |
| 20260509121542 | 46 | 127 | 3.0 | 8.0 | 0.00 | 0.18 | 0.00 | 88 | 1009.4 |
| 20260509120039 | 46 | 148 | 4.0 | 9.0 | 0.00 | 0.18 | 0.00 | 87 | 1009.7 |
| 20260509114541 | 46 | 195 | 3.0 | 8.0 | 0.00 | 0.18 | 0.00 | 85 | 1009.7 |
| 20260509113043 | 46 | 143 | 2.0 | 6.0 | 0.00 | 0.18 | 0.00 | 85 | 1009.9 |
| 20260509111545 | 45 | 170 | 2.0 | 7.0 | 0.00 | 0.18 | 0.00 | 84 | 1009.9 |
| 20260509110034 | 45 | 127 | 3.0 | 6.0 | 0.00 | 0.18 | 0.00 | 84 | 1009.7 |
| 20260509104534 | 45 | 152 | 1.0 | 4.0 | 0.00 | 0.18 | 0.00 | 84 | 1009.8 |
| 20260509103040 | 45 | 129 | 1.0 | 5.0 | 0.00 | 0.18 | 0.00 | 84 | 1009.7 |
| 20260509101533 | 45 | 153 | 0.0 | 5.0 | 0.00 | 0.18 | 0.00 | 83 | 1009.7 |
| 20260509100032 | 44 | 143 | 0.0 | 1.0 | 0.00 | 0.18 | 0.00 | 85 | 1009.7 |
| 20260509094530 | 44 | 141 | 1.0 | 4.0 | 0.00 | 0.18 | 0.00 | 85 | 1009.6 |
| 20260509093026 | 43 | 149 | 1.0 | 5.0 | 0.00 | 0.18 | 0.00 | 85 | 1009.5 |
| 20260509091527 | 43 | 150 | 0.0 | 3.0 | 0.00 | 0.18 | 0.00 | 84 | 1009.3 |
| 20260509090022 | 43 | 149 | 0.0 | 2.0 | 0.00 | 0.18 | 0.00 | 84 | 1009.7 |
| 20260509084519 | 42 | 153 | 0.0 | 2.0 | 0.00 | 0.18 | 0.00 | 85 | 1010.0 |
| 20260509083024 | 41 | 148 | 0.0 | 1.0 | 0.00 | 0.18 | 0.00 | 88 | 1010.3 |
| 20260509081517 | 40 | 148 | 0.0 | 0.0 | 0.00 | 0.18 | 0.00 | 89 | 1010.2 |
| 20260509080014 | 41 | 148 | 0.0 | 0.0 | 0.00 | 0.18 | 0.00 | 87 | 1010.3 |
| 20260509074514 | 41 | 148 | 0.0 | 0.0 | 0.00 | 0.18 | 0.00 | 86 | 1010.4 |
| 20260509073010 | 41 | 148 | 0.0 | 0.0 | 0.00 | 0.18 | 0.00 | 86 | 1010.5 |
| 20260509071510 | 41 | 148 | 0.0 | 0.0 | 0.00 | 0.18 | 0.00 | 86 | 1010.6 |
| 20260509070008 | 41 | 148 | 0.0 | 0.0 | 0.00 | 0.21 | 0.00 | 85 | 1010.5 |
| 20260509064518 | 41 | 149 | 0.0 | 1.0 | 0.00 | 0.21 | 0.00 | 84 | 1010.6 |
| 20260509063004 | 42 | 149 | 0.0 | 0.0 | 0.00 | 0.21 | 0.00 | 82 | 1010.8 |
| 20260509061505 | 43 | 149 | 0.0 | 2.0 | 0.00 | 0.21 | 0.00 | 83 | 1011.0 |
| 20260509060100 | 43 | 155 | 0.0 | 2.0 | 0.00 | 0.23 | 0.00 | 81 | 1011.2 |
| 20260509054604 | 43 | 153 | 0.0 | 1.0 | 0.00 | 0.23 | 0.00 | 81 | 1011.3 |
| 20260509053101 | 43 | 149 | 0.0 | 1.0 | 0.00 | 0.23 | 0.00 | 82 | 1011.5 |
| 20260509051556 | 43 | 146 | 0.0 | 2.0 | 0.00 | 0.23 | 0.00 | 83 | 1011.8 |
| 20260509050054 | 43 | 152 | 0.0 | 3.0 | 0.00 | 0.23 | 0.00 | 82 | 1011.7 |
| 20260509044556 | 43 | 139 | 0.0 | 2.0 | 0.00 | 0.23 | 0.00 | 81 | 1011.9 |
| 20260509043050 | 43 | 154 | 0.0 | 2.0 | 0.00 | 0.23 | 0.00 | 83 | 1012.0 |
| 20260509041548 | 42 | 146 | 0.0 | 1.0 | 0.00 | 0.23 | 0.00 | 82 | 1012.0 |
| 20260509040045 | 42 | 158 | 0.0 | 2.0 | 0.00 | 0.23 | 0.23 | 84 | 1012.0 |
| 20260509034547 | 42 | 143 | 0.0 | 1.0 | 0.00 | 0.23 | 0.23 | 83 | 1012.0 |
| 20260509033044 | 42 | 110 | 0.0 | 1.0 | 0.00 | 0.23 | 0.23 | 80 | 1012.1 |
| 20260509031544 | 42 | 147 | 0.0 | 3.0 | 0.00 | 0.23 | 0.23 | 80 | 1012.1 |
| 20260509030044 | 42 | 143 | 0.0 | 1.0 | 0.00 | 0.23 | 0.23 | 83 | 1012.1 |
| 20260509024543 | 42 | 155 | 0.0 | 3.0 | 0.00 | 0.23 | 0.23 | 83 | 1012.3 |
| 20260509023043 | 42 | 153 | 0.0 | 2.0 | 0.00 | 0.23 | 0.23 | 85 | 1012.3 |
| 20260509021542 | 42 | 146 | 0.0 | 1.0 | 0.00 | 0.23 | 0.23 | 86 | 1012.3 |
| 20260509020041 | 41 | 149 | 0.0 | 1.0 | 0.00 | 0.23 | 0.23 | 87 | 1012.3 |
| 20260509014540 | 41 | 149 | 0.0 | 0.0 | 0.00 | 0.23 | 0.23 | 87 | 1012.3 |
| 20260509013039 | 42 | 149 | 0.0 | 0.0 | 0.00 | 0.23 | 0.23 | 87 | 1012.1 |
| 20260509011539 | 42 | 149 | 0.0 | 0.0 | 0.00 | 0.23 | 0.23 | 84 | 1011.9 |
| 20260509010039 | 43 | 149 | 0.0 | 0.0 | 0.00 | 0.23 | 0.23 | 80 | 1011.6 |
| 20260509004540 | 44 | 149 | 0.0 | 0.0 | 0.00 | 0.23 | 0.23 | 76 | 1011.4 |
| 20260509003040 | 46 | 149 | 0.0 | 0.0 | 0.00 | 0.23 | 0.23 | 71 | 1011.3 |
| 20260509001537 | 48 | 149 | 0.0 | 0.0 | 0.00 | 0.23 | 0.23 | 63 | 1011.2 |
| 20260509000036 | 50 | 149 | 0.0 | 0.0 | 0.00 | 0.23 | 0.23 | 54 | 1011.1 |
| 20260508234535 | 52 | 149 | 0.0 | 1.0 | 0.00 | 0.23 | 0.23 | 48 | 1011.0 |
| 20260508233035 | 53 | 149 | 0.0 | 2.0 | 0.00 | 0.23 | 0.23 | 44 | 1010.8 |
| 20260508231542 | 53 | 278 | 0.0 | 1.0 | 0.00 | 0.23 | 0.23 | 43 | 1010.9 |
| 20260508230039 | 53 | 271 | 1.0 | 5.0 | 0.00 | 0.23 | 0.23 | 43 | 1010.8 |
| 20260508224533 | 53 | 306 | 1.0 | 5.0 | 0.00 | 0.23 | 0.23 | 43 | 1010.7 |
| 20260508223040 | 54 | 6 | 0.0 | 3.0 | 0.00 | 0.23 | 0.23 | 43 | 1010.8 |
| 20260508221532 | 55 | 254 | 0.0 | 3.0 | 0.00 | 0.23 | 0.23 | 42 | 1011.0 |
| 20260508220036 | 55 | 293 | 3.0 | 7.0 | 0.00 | 0.23 | 0.23 | 43 | 1011.0 |
| 20260508214527 | 54 | 134 | 1.0 | 5.0 | 0.00 | 0.23 | 0.23 | 44 | 1011.2 |
| 20260508213026 | 54 | 46 | 3.0 | 7.0 | 0.00 | 0.23 | 0.23 | 45 | 1011.2 |
| 20260508211525 | 54 | 314 | 2.0 | 6.0 | 0.00 | 0.23 | 0.23 | 45 | 1011.3 |
| 20260508210023 | 54 | 233 | 1.0 | 5.0 | 0.00 | 0.23 | 0.23 | 47 | 1011.3 |
| 20260508204519 | 53 | 316 | 2.0 | 6.0 | 0.00 | 0.23 | 0.23 | 47 | 1011.5 |
| 20260508203023 | 52 | 266 | 2.0 | 7.0 | 0.00 | 0.23 | 0.23 | 50 | 1011.6 |
| 20260508201517 | 52 | 35 | 1.0 | 4.0 | 0.00 | 0.23 | 0.23 | 52 | 1011.6 |
| 20260508200015 | 52 | 67 | 3.0 | 10.0 | 0.00 | 0.23 | 0.23 | 51 | 1011.8 |
| 20260508194512 | 53 | 254 | 4.0 | 8.0 | 0.00 | 0.23 | 0.23 | 54 | 1012.0 |
| 20260508193008 | 50 | 206 | 3.0 | 8.0 | 0.00 | 0.23 | 0.23 | 61 | 1012.1 |
| 20260508191521 | 50 | 301 | 3.0 | 9.0 | 0.00 | 0.23 | 0.23 | 60 | 1012.2 |
| 20260508190005 | 49 | 253 | 4.0 | 9.0 | 0.00 | 0.23 | 0.23 | 62 | 1012.1 |
| 20260508184502 | 49 | 240 | 3.0 | 7.0 | 0.00 | 0.23 | 0.23 | 66 | 1012.3 |
| 20260508183108 | 47 | 335 | 1.0 | 10.0 | 0.00 | 0.23 | 0.23 | 70 | 1012.5 |
| 20260508183001 | 47 | 321 | 1.0 | 10.0 | 0.00 | 0.23 | 0.23 | 69 | 1012.6 |
| 20260508181600 | 47 | 244 | 2.0 | 8.0 | 0.00 | 0.23 | 0.23 | 73 | 1012.6 |
| 20260508180128 | 47 | 151 | 3.0 | 10.0 | 0.00 | 0.23 | 0.23 | 72 | 1012.7 |
| 20260508174611 | 47 | 338 | 3.0 | 11.0 | 0.00 | 0.23 | 0.23 | 72 | 1012.5 |
| 20260508173055 | 46 | 230 | 3.0 | 8.0 | 0.00 | 0.23 | 0.23 | 74 | 1012.8 |
| 20260508171554 | 46 | 283 | 2.0 | 8.0 | 0.00 | 0.23 | 0.23 | 76 | 1012.8 |
| 20260508170054 | 46 | 259 | 3.0 | 7.0 | 0.00 | 0.23 | 0.23 | 78 | 1013.0 |
| 20260508164553 | 45 | 180 | 3.0 | 14.0 | 0.00 | 0.23 | 0.23 | 78 | 1013.1 |
| 20260508163048 | 45 | 203 | 2.0 | 10.0 | 0.00 | 0.23 | 0.23 | 83 | 1013.1 |
| 20260508161545 | 44 | 246 | 2.0 | 6.0 | 0.00 | 0.23 | 0.23 | 85 | 1013.1 |
| 20260508160043 | 42 | 298 | 1.0 | 7.0 | 0.00 | 0.23 | 0.23 | 84 | 1013.1 |
| 20260508154544 | 42 | 278 | 3.0 | 7.0 | 0.00 | 0.23 | 0.23 | 88 | 1013.2 |
| 20260508153041 | 41 | 241 | 3.0 | 8.0 | 0.01 | 0.23 | 0.23 | 89 | 1013.1 |
| 20260508151540 | 39 | 279 | 3.0 | 7.0 | 0.02 | 0.23 | 0.23 | 91 | 1013.3 |
| 20260508150039 | 39 | 222 | 2.0 | 7.0 | 0.02 | 0.23 | 0.23 | 93 | 1013.3 |
| 20260508144539 | 38 | 13 | 0.0 | 7.0 | 0.10 | 0.23 | 0.23 | 92 | 1013.4 |
| 20260508143039 | 39 | 295 | 3.0 | 10.0 | 0.14 | 0.21 | 0.21 | 92 | 1013.4 |
| 20260508141537 | 39 | 355 | 0.0 | 4.0 | 0.15 | 0.21 | 0.21 | 94 | 1013.3 |
| 20260508140035 | 37 | 186 | 1.0 | 3.0 | 0.16 | 0.21 | 0.21 | 92 | 1013.2 |
| 20260508134536 | 39 | 333 | 2.0 | 9.0 | 0.07 | 0.12 | 0.12 | 90 | 1013.2 |
| 20260508133032 | 41 | 217 | 4.0 | 13.0 | 0.02 | 0.07 | 0.07 | 85 | 1012.9 |
| 20260508131534 | 42 | 306 | 2.0 | 6.0 | 0.01 | 0.06 | 0.06 | 90 | 1012.6 |
| 20260508130031 | 42 | 246 | 1.0 | 4.0 | 0.00 | 0.05 | 0.05 | 90 | 1012.6 |
| 20260508124527 | 42 | 301 | 0.0 | 3.0 | 0.00 | 0.05 | 0.05 | 90 | 1012.4 |